sensor_id;sensor_type;location;lat;lon;timestamp;P1;durP1;ratioP1;P2;durP2;ratioP2
35977;SDS011;22056;0.000;0.000;2024-01-30T00:01:22;2.22;;;0.65;;
35977;SDS011;22056;0.000;0.000;2024-01-30T00:03:48;2.45;;;0.63;;
35977;SDS011;22056;0.000;0.000;2024-01-30T00:06:18;2.97;;;0.73;;
35977;SDS011;22056;0.000;0.000;2024-01-30T00:08:46;2.63;;;0.80;;
35977;SDS011;22056;0.000;0.000;2024-01-30T00:11:14;3.05;;;0.63;;
35977;SDS011;22056;0.000;0.000;2024-01-30T00:13:40;2.53;;;0.60;;
35977;SDS011;22056;0.000;0.000;2024-01-30T00:16:08;1.85;;;0.43;;
35977;SDS011;22056;0.000;0.000;2024-01-30T00:18:34;1.88;;;0.60;;
35977;SDS011;22056;0.000;0.000;2024-01-30T00:21:00;2.97;;;0.85;;
35977;SDS011;22056;0.000;0.000;2024-01-30T00:23:26;1.98;;;0.40;;
35977;SDS011;22056;0.000;0.000;2024-01-30T00:25:52;1.27;;;0.50;;
35977;SDS011;22056;0.000;0.000;2024-01-30T00:28:18;2.38;;;0.70;;
35977;SDS011;22056;0.000;0.000;2024-01-30T00:30:45;2.28;;;0.70;;
35977;SDS011;22056;0.000;0.000;2024-01-30T00:33:11;0.80;;;0.60;;
35977;SDS011;22056;0.000;0.000;2024-01-30T00:35:37;1.48;;;0.60;;
35977;SDS011;22056;0.000;0.000;2024-01-30T00:38:03;0.73;;;0.40;;
35977;SDS011;22056;0.000;0.000;2024-01-30T00:40:29;1.85;;;0.50;;
35977;SDS011;22056;0.000;0.000;2024-01-30T00:42:55;1.80;;;0.60;;
35977;SDS011;22056;0.000;0.000;2024-01-30T00:45:21;0.70;;;0.40;;
35977;SDS011;22056;0.000;0.000;2024-01-30T00:47:48;1.23;;;0.50;;
35977;SDS011;22056;0.000;0.000;2024-01-30T00:50:14;2.25;;;0.60;;
35977;SDS011;22056;0.000;0.000;2024-01-30T00:52:41;1.92;;;0.60;;
35977;SDS011;22056;0.000;0.000;2024-01-30T00:55:10;0.82;;;0.63;;
35977;SDS011;22056;0.000;0.000;2024-01-30T00:57:36;0.75;;;0.60;;
35977;SDS011;22056;0.000;0.000;2024-01-30T01:00:02;1.08;;;0.50;;
35977;SDS011;22056;0.000;0.000;2024-01-30T01:02:31;0.93;;;0.45;;
35977;SDS011;22056;0.000;0.000;2024-01-30T01:04:57;0.68;;;0.50;;
35977;SDS011;22056;0.000;0.000;2024-01-30T01:07:23;0.70;;;0.50;;
35977;SDS011;22056;0.000;0.000;2024-01-30T01:09:49;2.00;;;0.50;;
35977;SDS011;22056;0.000;0.000;2024-01-30T01:12:15;0.85;;;0.40;;
35977;SDS011;22056;0.000;0.000;2024-01-30T01:14:41;0.65;;;0.50;;
35977;SDS011;22056;0.000;0.000;2024-01-30T01:17:08;1.17;;;0.40;;
35977;SDS011;22056;0.000;0.000;2024-01-30T01:19:34;1.17;;;0.50;;
35977;SDS011;22056;0.000;0.000;2024-01-30T01:22:00;0.47;;;0.35;;
35977;SDS011;22056;0.000;0.000;2024-01-30T01:24:26;0.63;;;0.40;;
35977;SDS011;22056;0.000;0.000;2024-01-30T01:26:52;1.08;;;0.45;;
35977;SDS011;22056;0.000;0.000;2024-01-30T01:29:18;0.70;;;0.40;;
35977;SDS011;22056;0.000;0.000;2024-01-30T01:31:45;0.85;;;0.50;;
35977;SDS011;22056;0.000;0.000;2024-01-30T01:34:12;0.82;;;0.40;;
35977;SDS011;22056;0.000;0.000;2024-01-30T01:36:39;0.50;;;0.47;;
35977;SDS011;22056;0.000;0.000;2024-01-30T01:39:05;1.10;;;0.40;;
35977;SDS011;22056;0.000;0.000;2024-01-30T01:41:31;0.50;;;0.40;;
35977;SDS011;22056;0.000;0.000;2024-01-30T01:43:58;1.10;;;0.50;;
35977;SDS011;22056;0.000;0.000;2024-01-30T01:46:26;1.85;;;0.40;;
35977;SDS011;22056;0.000;0.000;2024-01-30T01:48:53;1.10;;;0.40;;
35977;SDS011;22056;0.000;0.000;2024-01-30T01:51:19;0.73;;;0.47;;
35977;SDS011;22056;0.000;0.000;2024-01-30T01:53:46;0.45;;;0.45;;
35977;SDS011;22056;0.000;0.000;2024-01-30T01:56:12;1.05;;;0.40;;
35977;SDS011;22056;0.000;0.000;2024-01-30T01:58:39;0.90;;;0.50;;
35977;SDS011;22056;0.000;0.000;2024-01-30T02:01:06;0.90;;;0.50;;
35977;SDS011;22056;0.000;0.000;2024-01-30T02:03:34;1.00;;;0.45;;
35977;SDS011;22056;0.000;0.000;2024-01-30T02:06:00;0.50;;;0.43;;
35977;SDS011;22056;0.000;0.000;2024-01-30T02:08:27;1.75;;;0.40;;
35977;SDS011;22056;0.000;0.000;2024-01-30T02:10:53;0.93;;;0.40;;
35977;SDS011;22056;0.000;0.000;2024-01-30T02:13:21;1.13;;;0.50;;
35977;SDS011;22056;0.000;0.000;2024-01-30T02:15:50;0.52;;;0.45;;
35977;SDS011;22056;0.000;0.000;2024-01-30T02:18:17;1.48;;;0.45;;
35977;SDS011;22056;0.000;0.000;2024-01-30T02:20:43;0.77;;;0.47;;
35977;SDS011;22056;0.000;0.000;2024-01-30T02:23:09;0.95;;;0.50;;
35977;SDS011;22056;0.000;0.000;2024-01-30T02:25:39;1.92;;;0.35;;
35977;SDS011;22056;0.000;0.000;2024-01-30T02:28:12;0.70;;;0.45;;
35977;SDS011;22056;0.000;0.000;2024-01-30T02:30:38;0.98;;;0.50;;
35977;SDS011;22056;0.000;0.000;2024-01-30T02:33:05;0.57;;;0.38;;
35977;SDS011;22056;0.000;0.000;2024-01-30T02:35:31;0.60;;;0.50;;
35977;SDS011;22056;0.000;0.000;2024-01-30T02:37:58;0.75;;;0.40;;
35977;SDS011;22056;0.000;0.000;2024-01-30T02:40:24;0.47;;;0.47;;
35977;SDS011;22056;0.000;0.000;2024-01-30T02:42:50;0.35;;;0.35;;
35977;SDS011;22056;0.000;0.000;2024-01-30T02:45:17;0.30;;;0.30;;
35977;SDS011;22056;0.000;0.000;2024-01-30T02:47:43;0.40;;;0.35;;
35977;SDS011;22056;0.000;0.000;2024-01-30T02:50:09;0.60;;;0.32;;
35977;SDS011;22056;0.000;0.000;2024-01-30T02:52:35;0.50;;;0.40;;
35977;SDS011;22056;0.000;0.000;2024-01-30T02:55:01;1.33;;;0.50;;
35977;SDS011;22056;0.000;0.000;2024-01-30T02:57:28;0.50;;;0.38;;
35977;SDS011;22056;0.000;0.000;2024-01-30T02:59:54;1.00;;;0.60;;
35977;SDS011;22056;0.000;0.000;2024-01-30T03:02:21;0.63;;;0.43;;
35977;SDS011;22056;0.000;0.000;2024-01-30T03:04:47;0.50;;;0.50;;
35977;SDS011;22056;0.000;0.000;2024-01-30T03:07:13;0.40;;;0.40;;
35977;SDS011;22056;0.000;0.000;2024-01-30T03:09:41;0.75;;;0.50;;
35977;SDS011;22056;0.000;0.000;2024-01-30T03:12:11;0.45;;;0.35;;
35977;SDS011;22056;0.000;0.000;2024-01-30T03:14:37;0.40;;;0.40;;
35977;SDS011;22056;0.000;0.000;2024-01-30T03:17:03;0.50;;;0.43;;
35977;SDS011;22056;0.000;0.000;2024-01-30T03:19:29;0.88;;;0.50;;
35977;SDS011;22056;0.000;0.000;2024-01-30T03:21:55;0.75;;;0.40;;
35977;SDS011;22056;0.000;0.000;2024-01-30T03:24:21;0.25;;;0.25;;
35977;SDS011;22056;0.000;0.000;2024-01-30T03:26:47;0.50;;;0.43;;
35977;SDS011;22056;0.000;0.000;2024-01-30T03:29:14;0.30;;;0.30;;
35977;SDS011;22056;0.000;0.000;2024-01-30T03:31:40;0.40;;;0.40;;
35977;SDS011;22056;0.000;0.000;2024-01-30T03:34:06;0.50;;;0.47;;
35977;SDS011;22056;0.000;0.000;2024-01-30T03:36:33;0.43;;;0.43;;
35977;SDS011;22056;0.000;0.000;2024-01-30T03:38:59;0.52;;;0.30;;
35977;SDS011;22056;0.000;0.000;2024-01-30T03:41:26;0.75;;;0.38;;
35977;SDS011;22056;0.000;0.000;2024-01-30T03:43:52;0.70;;;0.45;;
35977;SDS011;22056;0.000;0.000;2024-01-30T03:46:18;0.68;;;0.38;;
35977;SDS011;22056;0.000;0.000;2024-01-30T03:48:47;0.50;;;0.40;;
35977;SDS011;22056;0.000;0.000;2024-01-30T03:51:13;0.47;;;0.40;;
35977;SDS011;22056;0.000;0.000;2024-01-30T03:53:41;0.95;;;0.50;;
35977;SDS011;22056;0.000;0.000;2024-01-30T03:56:08;0.60;;;0.40;;
35977;SDS011;22056;0.000;0.000;2024-01-30T03:58:34;0.63;;;0.40;;
35977;SDS011;22056;0.000;0.000;2024-01-30T04:01:00;0.70;;;0.50;;
35977;SDS011;22056;0.000;0.000;2024-01-30T04:03:26;0.70;;;0.50;;
35977;SDS011;22056;0.000;0.000;2024-01-30T04:05:52;0.55;;;0.45;;
35977;SDS011;22056;0.000;0.000;2024-01-30T04:08:19;0.55;;;0.38;;
35977;SDS011;22056;0.000;0.000;2024-01-30T04:10:45;0.88;;;0.45;;
35977;SDS011;22056;0.000;0.000;2024-01-30T04:13:12;0.50;;;0.40;;
35977;SDS011;22056;0.000;0.000;2024-01-30T04:15:38;0.60;;;0.40;;
35977;SDS011;22056;0.000;0.000;2024-01-30T04:18:05;0.47;;;0.47;;
35977;SDS011;22056;0.000;0.000;2024-01-30T04:20:31;0.57;;;0.47;;
35977;SDS011;22056;0.000;0.000;2024-01-30T04:22:57;0.65;;;0.35;;
35977;SDS011;22056;0.000;0.000;2024-01-30T04:25:23;0.63;;;0.50;;
35977;SDS011;22056;0.000;0.000;2024-01-30T04:27:49;0.57;;;0.50;;
35977;SDS011;22056;0.000;0.000;2024-01-30T04:30:15;0.40;;;0.40;;
35977;SDS011;22056;0.000;0.000;2024-01-30T04:32:42;0.40;;;0.40;;
35977;SDS011;22056;0.000;0.000;2024-01-30T04:35:08;0.40;;;0.40;;
35977;SDS011;22056;0.000;0.000;2024-01-30T04:37:34;1.15;;;0.50;;
35977;SDS011;22056;0.000;0.000;2024-01-30T04:40:01;1.58;;;0.60;;
35977;SDS011;22056;0.000;0.000;2024-01-30T04:42:28;0.80;;;0.50;;
35977;SDS011;22056;0.000;0.000;2024-01-30T04:44:54;1.25;;;0.50;;
35977;SDS011;22056;0.000;0.000;2024-01-30T04:47:20;1.15;;;0.60;;
35977;SDS011;22056;0.000;0.000;2024-01-30T04:49:46;1.13;;;0.35;;
35977;SDS011;22056;0.000;0.000;2024-01-30T04:52:13;0.70;;;0.40;;
35977;SDS011;22056;0.000;0.000;2024-01-30T04:54:39;1.05;;;0.50;;
35977;SDS011;22056;0.000;0.000;2024-01-30T04:57:05;1.15;;;0.60;;
35977;SDS011;22056;0.000;0.000;2024-01-30T04:59:37;0.60;;;0.40;;
35977;SDS011;22056;0.000;0.000;2024-01-30T05:02:03;1.90;;;0.60;;
35977;SDS011;22056;0.000;0.000;2024-01-30T05:04:29;0.57;;;0.50;;
35977;SDS011;22056;0.000;0.000;2024-01-30T05:06:55;1.40;;;0.88;;
35977;SDS011;22056;0.000;0.000;2024-01-30T05:09:21;2.22;;;0.70;;
35977;SDS011;22056;0.000;0.000;2024-01-30T05:11:47;2.47;;;0.70;;
35977;SDS011;22056;0.000;0.000;2024-01-30T05:14:14;1.85;;;0.70;;
35977;SDS011;22056;0.000;0.000;2024-01-30T05:16:40;0.85;;;0.70;;
35977;SDS011;22056;0.000;0.000;2024-01-30T05:19:08;1.67;;;0.57;;
35977;SDS011;22056;0.000;0.000;2024-01-30T05:21:34;1.23;;;0.60;;
35977;SDS011;22056;0.000;0.000;2024-01-30T05:24:00;0.68;;;0.60;;
35977;SDS011;22056;0.000;0.000;2024-01-30T05:26:26;0.90;;;0.60;;
35977;SDS011;22056;0.000;0.000;2024-01-30T05:28:52;2.30;;;0.60;;
35977;SDS011;22056;0.000;0.000;2024-01-30T05:31:18;0.90;;;0.50;;
35977;SDS011;22056;0.000;0.000;2024-01-30T05:33:46;1.88;;;0.60;;
35977;SDS011;22056;0.000;0.000;2024-01-30T05:36:12;0.80;;;0.60;;
35977;SDS011;22056;0.000;0.000;2024-01-30T05:38:38;1.05;;;0.57;;
35977;SDS011;22056;0.000;0.000;2024-01-30T05:41:04;0.95;;;0.50;;
35977;SDS011;22056;0.000;0.000;2024-01-30T05:43:31;1.23;;;0.73;;
35977;SDS011;22056;0.000;0.000;2024-01-30T05:45:57;2.63;;;0.60;;
35977;SDS011;22056;0.000;0.000;2024-01-30T05:48:23;0.60;;;0.50;;
35977;SDS011;22056;0.000;0.000;2024-01-30T05:50:49;1.98;;;0.70;;
35977;SDS011;22056;0.000;0.000;2024-01-30T05:53:15;2.65;;;0.50;;
35977;SDS011;22056;0.000;0.000;2024-01-30T05:55:41;1.85;;;0.50;;
35977;SDS011;22056;0.000;0.000;2024-01-30T05:58:07;1.77;;;0.50;;
35977;SDS011;22056;0.000;0.000;2024-01-30T06:00:33;2.05;;;0.70;;
35977;SDS011;22056;0.000;0.000;2024-01-30T06:03:00;1.52;;;0.68;;
35977;SDS011;22056;0.000;0.000;2024-01-30T06:05:26;2.35;;;0.80;;
35977;SDS011;22056;0.000;0.000;2024-01-30T06:07:52;2.55;;;0.70;;
35977;SDS011;22056;0.000;0.000;2024-01-30T06:10:18;1.08;;;0.55;;
35977;SDS011;22056;0.000;0.000;2024-01-30T06:12:45;4.38;;;1.10;;
35977;SDS011;22056;0.000;0.000;2024-01-30T06:15:11;1.63;;;0.40;;
35977;SDS011;22056;0.000;0.000;2024-01-30T06:17:37;1.55;;;0.73;;
35977;SDS011;22056;0.000;0.000;2024-01-30T06:20:04;1.20;;;0.63;;
35977;SDS011;22056;0.000;0.000;2024-01-30T06:22:30;3.42;;;0.70;;
35977;SDS011;22056;0.000;0.000;2024-01-30T06:24:56;2.78;;;0.50;;
35977;SDS011;22056;0.000;0.000;2024-01-30T06:27:22;3.10;;;0.70;;
35977;SDS011;22056;0.000;0.000;2024-01-30T06:29:48;1.83;;;0.68;;
35977;SDS011;22056;0.000;0.000;2024-01-30T06:32:15;3.13;;;0.77;;
35977;SDS011;22056;0.000;0.000;2024-01-30T06:34:41;1.88;;;0.60;;
35977;SDS011;22056;0.000;0.000;2024-01-30T06:37:09;5.78;;;0.70;;
35977;SDS011;22056;0.000;0.000;2024-01-30T06:39:35;3.15;;;0.70;;
35977;SDS011;22056;0.000;0.000;2024-01-30T06:42:01;1.48;;;0.60;;
35977;SDS011;22056;0.000;0.000;2024-01-30T06:44:27;3.60;;;0.70;;
35977;SDS011;22056;0.000;0.000;2024-01-30T06:46:54;2.80;;;0.80;;
35977;SDS011;22056;0.000;0.000;2024-01-30T06:49:20;2.63;;;0.63;;
35977;SDS011;22056;0.000;0.000;2024-01-30T06:51:47;4.78;;;0.70;;
35977;SDS011;22056;0.000;0.000;2024-01-30T06:54:13;5.07;;;0.80;;
35977;SDS011;22056;0.000;0.000;2024-01-30T06:56:39;3.25;;;0.85;;
35977;SDS011;22056;0.000;0.000;2024-01-30T06:59:05;3.78;;;0.85;;
35977;SDS011;22056;0.000;0.000;2024-01-30T07:01:31;8.63;;;0.93;;
35977;SDS011;22056;0.000;0.000;2024-01-30T07:03:58;6.15;;;0.82;;
35977;SDS011;22056;0.000;0.000;2024-01-30T07:06:24;3.15;;;0.73;;
35977;SDS011;22056;0.000;0.000;2024-01-30T07:08:50;3.08;;;0.82;;
35977;SDS011;22056;0.000;0.000;2024-01-30T07:11:19;4.78;;;0.70;;
35977;SDS011;22056;0.000;0.000;2024-01-30T07:13:50;3.10;;;0.60;;
35977;SDS011;22056;0.000;0.000;2024-01-30T07:16:16;4.13;;;0.70;;
35977;SDS011;22056;0.000;0.000;2024-01-30T07:18:43;3.20;;;1.08;;
35977;SDS011;22056;0.000;0.000;2024-01-30T07:21:09;3.47;;;0.85;;
35977;SDS011;22056;0.000;0.000;2024-01-30T07:23:35;2.20;;;0.85;;
35977;SDS011;22056;0.000;0.000;2024-01-30T07:26:04;5.07;;;1.02;;
35977;SDS011;22056;0.000;0.000;2024-01-30T07:28:31;1.95;;;0.88;;
35977;SDS011;22056;0.000;0.000;2024-01-30T07:30:58;4.82;;;0.80;;
35977;SDS011;22056;0.000;0.000;2024-01-30T07:33:24;4.57;;;0.93;;
35977;SDS011;22056;0.000;0.000;2024-01-30T07:35:52;2.83;;;0.77;;
35977;SDS011;22056;0.000;0.000;2024-01-30T07:38:18;3.05;;;0.77;;
35977;SDS011;22056;0.000;0.000;2024-01-30T07:40:44;3.08;;;0.73;;
35977;SDS011;22056;0.000;0.000;2024-01-30T07:43:10;8.63;;;0.90;;
35977;SDS011;22056;0.000;0.000;2024-01-30T07:45:37;2.08;;;0.77;;
35977;SDS011;22056;0.000;0.000;2024-01-30T07:48:04;4.72;;;0.80;;
35977;SDS011;22056;0.000;0.000;2024-01-30T07:50:30;3.72;;;0.65;;
35977;SDS011;22056;0.000;0.000;2024-01-30T07:52:59;5.28;;;0.68;;
35977;SDS011;22056;0.000;0.000;2024-01-30T07:55:25;3.30;;;0.70;;
35977;SDS011;22056;0.000;0.000;2024-01-30T07:57:56;3.47;;;0.90;;
35977;SDS011;22056;0.000;0.000;2024-01-30T08:00:24;3.67;;;0.68;;
35977;SDS011;22056;0.000;0.000;2024-01-30T08:02:53;2.92;;;0.73;;
35977;SDS011;22056;0.000;0.000;2024-01-30T08:05:20;2.22;;;0.70;;
35977;SDS011;22056;0.000;0.000;2024-01-30T08:07:47;5.50;;;0.80;;
35977;SDS011;22056;0.000;0.000;2024-01-30T08:10:14;3.38;;;0.70;;
35977;SDS011;22056;0.000;0.000;2024-01-30T08:12:40;4.50;;;0.82;;
35977;SDS011;22056;0.000;0.000;2024-01-30T08:15:06;2.78;;;0.77;;
35977;SDS011;22056;0.000;0.000;2024-01-30T08:17:33;4.68;;;1.00;;
35977;SDS011;22056;0.000;0.000;2024-01-30T08:19:59;6.45;;;0.90;;
35977;SDS011;22056;0.000;0.000;2024-01-30T08:22:25;2.00;;;0.52;;
35977;SDS011;22056;0.000;0.000;2024-01-30T08:24:52;2.65;;;0.73;;
35977;SDS011;22056;0.000;0.000;2024-01-30T08:27:18;3.60;;;0.82;;
35977;SDS011;22056;0.000;0.000;2024-01-30T08:29:44;2.55;;;0.70;;
35977;SDS011;22056;0.000;0.000;2024-01-30T08:32:11;1.80;;;0.70;;
35977;SDS011;22056;0.000;0.000;2024-01-30T08:34:37;2.92;;;0.88;;
35977;SDS011;22056;0.000;0.000;2024-01-30T08:37:03;3.13;;;0.77;;
35977;SDS011;22056;0.000;0.000;2024-01-30T08:39:30;2.75;;;0.70;;
35977;SDS011;22056;0.000;0.000;2024-01-30T08:41:56;2.30;;;0.80;;
35977;SDS011;22056;0.000;0.000;2024-01-30T08:44:23;4.70;;;0.70;;
35977;SDS011;22056;0.000;0.000;2024-01-30T08:46:49;3.88;;;0.95;;
35977;SDS011;22056;0.000;0.000;2024-01-30T08:49:19;4.57;;;0.95;;
35977;SDS011;22056;0.000;0.000;2024-01-30T08:51:46;1.42;;;0.50;;
35977;SDS011;22056;0.000;0.000;2024-01-30T08:54:12;3.35;;;1.00;;
35977;SDS011;22056;0.000;0.000;2024-01-30T08:56:38;2.97;;;0.80;;
35977;SDS011;22056;0.000;0.000;2024-01-30T08:59:04;3.58;;;0.80;;
35977;SDS011;22056;0.000;0.000;2024-01-30T09:01:31;5.50;;;0.80;;
35977;SDS011;22056;0.000;0.000;2024-01-30T09:03:57;4.22;;;0.60;;
35977;SDS011;22056;0.000;0.000;2024-01-30T09:06:23;4.68;;;0.80;;
35977;SDS011;22056;0.000;0.000;2024-01-30T09:08:51;5.32;;;0.80;;
35977;SDS011;22056;0.000;0.000;2024-01-30T09:11:18;5.45;;;0.80;;
35977;SDS011;22056;0.000;0.000;2024-01-30T09:13:44;2.40;;;0.60;;
35977;SDS011;22056;0.000;0.000;2024-01-30T09:16:10;2.50;;;0.80;;
35977;SDS011;22056;0.000;0.000;2024-01-30T09:18:36;4.25;;;0.70;;
35977;SDS011;22056;0.000;0.000;2024-01-30T09:21:02;2.33;;;0.90;;
35977;SDS011;22056;0.000;0.000;2024-01-30T09:23:29;3.00;;;0.80;;
35977;SDS011;22056;0.000;0.000;2024-01-30T09:25:55;2.80;;;0.60;;
35977;SDS011;22056;0.000;0.000;2024-01-30T09:28:21;5.90;;;1.08;;
35977;SDS011;22056;0.000;0.000;2024-01-30T09:30:47;2.90;;;0.60;;
35977;SDS011;22056;0.000;0.000;2024-01-30T09:33:13;3.75;;;0.98;;
35977;SDS011;22056;0.000;0.000;2024-01-30T09:35:40;5.28;;;0.95;;
35977;SDS011;22056;0.000;0.000;2024-01-30T09:38:06;2.72;;;0.70;;
35977;SDS011;22056;0.000;0.000;2024-01-30T09:40:32;2.55;;;0.68;;
35977;SDS011;22056;0.000;0.000;2024-01-30T09:42:58;1.65;;;0.60;;
35977;SDS011;22056;0.000;0.000;2024-01-30T09:45:25;2.67;;;0.73;;
35977;SDS011;22056;0.000;0.000;2024-01-30T09:47:52;2.78;;;0.70;;
35977;SDS011;22056;0.000;0.000;2024-01-30T09:50:19;2.65;;;0.80;;
35977;SDS011;22056;0.000;0.000;2024-01-30T09:52:46;2.65;;;0.80;;
35977;SDS011;22056;0.000;0.000;2024-01-30T09:55:12;4.03;;;0.60;;
35977;SDS011;22056;0.000;0.000;2024-01-30T09:57:38;3.00;;;0.80;;
35977;SDS011;22056;0.000;0.000;2024-01-30T10:00:05;1.52;;;0.70;;
35977;SDS011;22056;0.000;0.000;2024-01-30T10:02:35;2.30;;;0.60;;
35977;SDS011;22056;0.000;0.000;2024-01-30T10:05:01;2.42;;;0.85;;
35977;SDS011;22056;0.000;0.000;2024-01-30T10:07:28;2.13;;;0.60;;
35977;SDS011;22056;0.000;0.000;2024-01-30T10:09:55;2.65;;;0.70;;
35977;SDS011;22056;0.000;0.000;2024-01-30T10:12:22;1.17;;;0.75;;
35977;SDS011;22056;0.000;0.000;2024-01-30T10:14:48;1.77;;;0.60;;
35977;SDS011;22056;0.000;0.000;2024-01-30T10:17:15;2.45;;;0.70;;
35977;SDS011;22056;0.000;0.000;2024-01-30T10:19:41;3.22;;;0.80;;
35977;SDS011;22056;0.000;0.000;2024-01-30T10:22:07;1.00;;;0.60;;
35977;SDS011;22056;0.000;0.000;2024-01-30T10:24:34;2.67;;;0.75;;
35977;SDS011;22056;0.000;0.000;2024-01-30T10:27:00;1.38;;;0.52;;
35977;SDS011;22056;0.000;0.000;2024-01-30T10:29:26;2.45;;;0.65;;
35977;SDS011;22056;0.000;0.000;2024-01-30T10:32:02;1.77;;;0.80;;
35977;SDS011;22056;0.000;0.000;2024-01-30T10:34:29;2.03;;;0.60;;
35977;SDS011;22056;0.000;0.000;2024-01-30T10:37:01;5.00;;;0.90;;
35977;SDS011;22056;0.000;0.000;2024-01-30T10:39:30;3.50;;;0.75;;
35977;SDS011;22056;0.000;0.000;2024-01-30T10:41:56;2.03;;;0.80;;
35977;SDS011;22056;0.000;0.000;2024-01-30T10:44:25;1.98;;;0.82;;
35977;SDS011;22056;0.000;0.000;2024-01-30T10:46:56;2.90;;;1.00;;
35977;SDS011;22056;0.000;0.000;2024-01-30T10:49:23;2.75;;;0.73;;
35977;SDS011;22056;0.000;0.000;2024-01-30T10:51:50;2.90;;;0.60;;
35977;SDS011;22056;0.000;0.000;2024-01-30T10:54:17;3.78;;;0.70;;
35977;SDS011;22056;0.000;0.000;2024-01-30T10:56:43;1.55;;;0.65;;
35977;SDS011;22056;0.000;0.000;2024-01-30T10:59:10;1.42;;;0.80;;
35977;SDS011;22056;0.000;0.000;2024-01-30T11:01:38;2.08;;;0.60;;
35977;SDS011;22056;0.000;0.000;2024-01-30T11:04:05;2.88;;;0.65;;
35977;SDS011;22056;0.000;0.000;2024-01-30T11:06:32;2.05;;;0.80;;
35977;SDS011;22056;0.000;0.000;2024-01-30T11:09:09;1.00;;;0.55;;
35977;SDS011;22056;0.000;0.000;2024-01-30T11:11:56;1.30;;;0.65;;
35977;SDS011;22056;0.000;0.000;2024-01-30T11:14:26;2.58;;;0.70;;
35977;SDS011;22056;0.000;0.000;2024-01-30T11:16:53;3.13;;;0.63;;
35977;SDS011;22056;0.000;0.000;2024-01-30T11:19:22;2.25;;;0.88;;
35977;SDS011;22056;0.000;0.000;2024-01-30T11:24:22;2.75;;;0.82;;
35977;SDS011;22056;0.000;0.000;2024-01-30T11:27:00;1.83;;;0.95;;
35977;SDS011;22056;0.000;0.000;2024-01-30T11:29:29;3.30;;;1.00;;
35977;SDS011;22056;0.000;0.000;2024-01-30T11:31:57;2.35;;;0.75;;
35977;SDS011;22056;0.000;0.000;2024-01-30T11:34:23;2.42;;;0.82;;
35977;SDS011;22056;0.000;0.000;2024-01-30T11:36:55;2.58;;;0.68;;
35977;SDS011;22056;0.000;0.000;2024-01-30T11:39:27;3.67;;;1.13;;
35977;SDS011;22056;0.000;0.000;2024-01-30T11:41:53;2.60;;;0.98;;
35977;SDS011;22056;0.000;0.000;2024-01-30T11:44:19;3.67;;;0.95;;
35977;SDS011;22056;0.000;0.000;2024-01-30T11:46:49;4.05;;;0.70;;
35977;SDS011;22056;0.000;0.000;2024-01-30T11:49:18;3.72;;;1.05;;
35977;SDS011;22056;0.000;0.000;2024-01-30T11:51:47;4.25;;;1.15;;
35977;SDS011;22056;0.000;0.000;2024-01-30T11:54:17;4.93;;;1.15;;
35977;SDS011;22056;0.000;0.000;2024-01-30T11:56:43;2.20;;;0.93;;
35977;SDS011;22056;0.000;0.000;2024-01-30T11:59:09;2.47;;;1.05;;
35977;SDS011;22056;0.000;0.000;2024-01-30T12:01:36;5.15;;;0.88;;
35977;SDS011;22056;0.000;0.000;2024-01-30T12:04:02;3.08;;;0.95;;
35977;SDS011;22056;0.000;0.000;2024-01-30T12:06:32;4.20;;;0.93;;
35977;SDS011;22056;0.000;0.000;2024-01-30T12:08:59;3.88;;;0.90;;
35977;SDS011;22056;0.000;0.000;2024-01-30T12:11:28;2.03;;;0.88;;
35977;SDS011;22056;0.000;0.000;2024-01-30T12:13:55;5.40;;;0.90;;
35977;SDS011;22056;0.000;0.000;2024-01-30T12:16:21;2.85;;;0.95;;
35977;SDS011;22056;0.000;0.000;2024-01-30T12:18:48;2.95;;;0.80;;
35977;SDS011;22056;0.000;0.000;2024-01-30T12:21:17;3.03;;;1.02;;
35977;SDS011;22056;0.000;0.000;2024-01-30T12:23:44;3.70;;;1.02;;
35977;SDS011;22056;0.000;0.000;2024-01-30T12:26:11;6.10;;;1.00;;
35977;SDS011;22056;0.000;0.000;2024-01-30T12:28:37;2.95;;;1.10;;
35977;SDS011;22056;0.000;0.000;2024-01-30T12:31:13;5.38;;;1.00;;
35977;SDS011;22056;0.000;0.000;2024-01-30T12:33:39;4.22;;;0.82;;
35977;SDS011;22056;0.000;0.000;2024-01-30T12:36:05;6.05;;;1.25;;
35977;SDS011;22056;0.000;0.000;2024-01-30T12:38:31;1.25;;;0.68;;
35977;SDS011;22056;0.000;0.000;2024-01-30T12:40:58;3.58;;;0.98;;
35977;SDS011;22056;0.000;0.000;2024-01-30T12:43:24;2.25;;;0.65;;
35977;SDS011;22056;0.000;0.000;2024-01-30T12:45:52;3.30;;;0.90;;
35977;SDS011;22056;0.000;0.000;2024-01-30T12:48:18;4.28;;;0.88;;
35977;SDS011;22056;0.000;0.000;2024-01-30T12:50:44;5.68;;;0.98;;
35977;SDS011;22056;0.000;0.000;2024-01-30T12:53:10;2.35;;;0.55;;
35977;SDS011;22056;0.000;0.000;2024-01-30T12:55:37;4.00;;;0.90;;
35977;SDS011;22056;0.000;0.000;2024-01-30T12:58:04;3.13;;;0.88;;
35977;SDS011;22056;0.000;0.000;2024-01-30T13:00:30;3.38;;;0.90;;
35977;SDS011;22056;0.000;0.000;2024-01-30T13:02:57;3.08;;;0.95;;
35977;SDS011;22056;0.000;0.000;2024-01-30T13:05:23;2.65;;;1.00;;
35977;SDS011;22056;0.000;0.000;2024-01-30T13:07:50;4.72;;;0.80;;
35977;SDS011;22056;0.000;0.000;2024-01-30T13:10:18;3.05;;;0.77;;
35977;SDS011;22056;0.000;0.000;2024-01-30T13:12:44;5.07;;;0.90;;
35977;SDS011;22056;0.000;0.000;2024-01-30T13:15:10;3.47;;;1.13;;
35977;SDS011;22056;0.000;0.000;2024-01-30T13:17:37;1.50;;;0.70;;
35977;SDS011;22056;0.000;0.000;2024-01-30T13:20:03;2.80;;;1.00;;
35977;SDS011;22056;0.000;0.000;2024-01-30T13:22:29;2.00;;;0.90;;
35977;SDS011;22056;0.000;0.000;2024-01-30T13:24:55;3.10;;;1.10;;
35977;SDS011;22056;0.000;0.000;2024-01-30T13:27:21;3.80;;;0.98;;
35977;SDS011;22056;0.000;0.000;2024-01-30T13:29:48;5.20;;;0.95;;
35977;SDS011;22056;0.000;0.000;2024-01-30T13:32:14;2.97;;;0.90;;
35977;SDS011;22056;0.000;0.000;2024-01-30T13:34:40;3.90;;;1.23;;
35977;SDS011;22056;0.000;0.000;2024-01-30T13:37:06;4.28;;;1.08;;
35977;SDS011;22056;0.000;0.000;2024-01-30T13:39:32;3.33;;;0.95;;
35977;SDS011;22056;0.000;0.000;2024-01-30T13:41:59;1.85;;;0.90;;
35977;SDS011;22056;0.000;0.000;2024-01-30T13:44:25;4.68;;;1.13;;
35977;SDS011;22056;0.000;0.000;2024-01-30T13:46:51;3.83;;;1.17;;
35977;SDS011;22056;0.000;0.000;2024-01-30T13:49:18;3.55;;;1.00;;
35977;SDS011;22056;0.000;0.000;2024-01-30T13:51:44;3.67;;;1.05;;
35977;SDS011;22056;0.000;0.000;2024-01-30T13:54:10;4.88;;;1.00;;
35977;SDS011;22056;0.000;0.000;2024-01-30T13:56:36;6.32;;;1.05;;
35977;SDS011;22056;0.000;0.000;2024-01-30T13:59:02;2.92;;;1.00;;
35977;SDS011;22056;0.000;0.000;2024-01-30T14:01:30;9.15;;;1.73;;
35977;SDS011;22056;0.000;0.000;2024-01-30T14:03:57;2.40;;;1.05;;
35977;SDS011;22056;0.000;0.000;2024-01-30T14:06:23;6.60;;;0.90;;
35977;SDS011;22056;0.000;0.000;2024-01-30T14:08:49;2.88;;;1.02;;
35977;SDS011;22056;0.000;0.000;2024-01-30T14:11:15;2.35;;;0.80;;
35977;SDS011;22056;0.000;0.000;2024-01-30T14:13:41;4.28;;;1.10;;
35977;SDS011;22056;0.000;0.000;2024-01-30T14:16:07;5.05;;;1.00;;
35977;SDS011;22056;0.000;0.000;2024-01-30T14:18:34;6.78;;;1.20;;
35977;SDS011;22056;0.000;0.000;2024-01-30T14:21:00;4.53;;;1.10;;
35977;SDS011;22056;0.000;0.000;2024-01-30T14:23:26;4.63;;;1.02;;
35977;SDS011;22056;0.000;0.000;2024-01-30T14:25:52;1.77;;;0.70;;
35977;SDS011;22056;0.000;0.000;2024-01-30T14:28:18;5.53;;;1.25;;
35977;SDS011;22056;0.000;0.000;2024-01-30T14:30:44;1.92;;;0.93;;
35977;SDS011;22056;0.000;0.000;2024-01-30T14:33:10;3.20;;;1.00;;
35977;SDS011;22056;0.000;0.000;2024-01-30T14:35:37;2.72;;;0.82;;
35977;SDS011;22056;0.000;0.000;2024-01-30T14:38:03;3.65;;;0.98;;
35977;SDS011;22056;0.000;0.000;2024-01-30T14:40:30;4.85;;;0.80;;
35977;SDS011;22056;0.000;0.000;2024-01-30T14:42:56;3.47;;;1.08;;
35977;SDS011;22056;0.000;0.000;2024-01-30T14:45:22;3.85;;;0.90;;
35977;SDS011;22056;0.000;0.000;2024-01-30T14:47:48;4.00;;;0.80;;
35977;SDS011;22056;0.000;0.000;2024-01-30T14:50:15;4.38;;;1.05;;
35977;SDS011;22056;0.000;0.000;2024-01-30T14:52:42;1.80;;;0.88;;
35977;SDS011;22056;0.000;0.000;2024-01-30T14:55:09;2.03;;;0.90;;
35977;SDS011;22056;0.000;0.000;2024-01-30T14:57:36;4.78;;;0.88;;
35977;SDS011;22056;0.000;0.000;2024-01-30T15:00:03;2.88;;;0.80;;